Time;durP1;ratioP1;P1;durP2;ratioP2;P2;SDS_P1;SDS_P2;PMS_P1;PMS_P2;Temp;Humidity;BMP_temperature;BMP_pressure;BME280_temperature;BME280_humidity;BME280_pressure;Samples;Min_cycle;Max_cycle;Signal;HPM_P1;HPM_P2
2022/12/24 00:00:06;;;;;;;77.73;25.63;;;;;;;;;;5056297;28;20295;-81
2022/12/24 00:02:32;;;;;;;66.17;23.10;;;;;;;;;;5073841;28;20337;-82
2022/12/24 00:04:58;;;;;;;67.67;25.67;;;;;;;;;;5073320;28;20783;-81
2022/12/24 00:07:24;;;;;;;49.20;20.13;;;;;;;;;;5056833;28;20329;-82
2022/12/24 00:09:51;;;;;;;56.77;22.10;;;;;;;;;;5074162;28;20314;-81
2022/12/24 00:12:17;;;;;;;54.83;21.83;;;;;;;;;;5056806;28;20323;-81
2022/12/24 00:14:43;;;;;;;51.63;21.67;;;;;;;;;;5039331;28;20393;-81
2022/12/24 00:17:09;;;;;;;51.60;21.70;;;;;;;;;;5073605;28;20351;-82
2022/12/24 00:19:35;;;;;;;53.23;21.03;;;;;;;;;;5056186;28;20330;-82
2022/12/24 00:22:01;;;;;;;63.50;22.07;;;;;;;;;;5056568;28;20298;-82
2022/12/24 00:24:27;;;;;;;94.47;25.63;;;;;;;;;;5073401;28;20370;-82
2022/12/24 00:26:53;;;;;;;55.07;21.77;;;;;;;;;;5056018;28;20627;-82
2022/12/24 00:29:20;;;;;;;66.90;22.40;;;;;;;;;;5073455;28;20281;-82
2022/12/24 00:31:46;;;;;;;65.33;22.43;;;;;;;;;;5056100;28;20279;-82
2022/12/24 00:34:12;;;;;;;52.53;20.80;;;;;;;;;;5055212;28;20303;-82
2022/12/24 00:36:38;;;;;;;72.83;22.17;;;;;;;;;;5073339;28;20326;-82
2022/12/24 00:39:04;;;;;;;59.77;22.67;;;;;;;;;;5055700;28;20290;-82
2022/12/24 00:41:30;;;;;;;52.37;20.33;;;;;;;;;;5055659;28;20291;-82
2022/12/24 00:43:58;;;;;;;69.57;23.40;;;;;;;;;;5073443;28;20324;-82
2022/12/24 00:46:25;;;;;;;84.57;24.43;;;;;;;;;;5073218;28;20309;-82
2022/12/24 00:48:51;;;;;;;73.17;23.60;;;;;;;;;;5072951;28;20797;-82
2022/12/24 00:51:17;;;;;;;97.33;25.43;;;;;;;;;;5073085;28;20308;-82
2022/12/24 00:53:43;;;;;;;61.70;22.90;;;;;;;;;;5073847;28;20413;-82
2022/12/24 00:56:09;;;;;;;105.47;26.50;;;;;;;;;;5073227;28;20318;-82
2022/12/24 00:58:36;;;;;;;89.57;26.20;;;;;;;;;;5055271;28;20293;-82
2022/12/24 01:01:02;;;;;;;72.80;24.00;;;;;;;;;;5056289;28;20295;-82
2022/12/24 01:03:34;;;;;;;97.97;26.30;;;;;;;;;;5073098;28;20328;-82
2022/12/24 01:06:03;;;;;;;72.17;23.43;;;;;;;;;;5073409;28;20278;-82
2022/12/24 01:08:29;;;;;;;80.37;24.83;;;;;;;;;;5055685;28;20295;-82
2022/12/24 01:10:56;;;;;;;76.43;24.30;;;;;;;;;;5073560;28;20821;-82
2022/12/24 01:13:22;;;;;;;85.23;24.77;;;;;;;;;;5073407;28;20305;-82
2022/12/24 01:15:48;;;;;;;69.27;24.13;;;;;;;;;;5056357;28;20282;-82
2022/12/24 01:18:14;;;;;;;101.17;26.93;;;;;;;;;;5077728;28;20354;-82
2022/12/24 01:20:40;;;;;;;81.67;25.40;;;;;;;;;;5059184;28;20377;-82
2022/12/24 01:23:06;;;;;;;87.63;25.07;;;;;;;;;;5077342;28;20367;-82
2022/12/24 01:25:32;;;;;;;90.57;25.40;;;;;;;;;;5076801;28;20333;-81
2022/12/24 01:27:58;;;;;;;76.50;25.67;;;;;;;;;;5059170;28;20378;-81
2022/12/24 01:30:25;;;;;;;103.50;27.93;;;;;;;;;;5059114;28;20369;-82
2022/12/24 01:32:51;;;;;;;139.57;28.97;;;;;;;;;;5076763;28;20297;-82
2022/12/24 01:35:17;;;;;;;81.87;25.40;;;;;;;;;;5076653;28;20767;-82
2022/12/24 01:37:43;;;;;;;119.83;29.03;;;;;;;;;;5058646;28;20435;-81
2022/12/24 01:45:44;;;;;;;134.83;28.97;;;;;;;;;;5077046;28;20283;-81
2022/12/24 01:48:22;;;;;;;90.10;27.23;;;;;;;;;;5076354;28;20798;-82
2022/12/24 01:50:50;;;;;;;100.87;28.47;;;;;;;;;;5075971;28;20283;-82
2022/12/24 01:53:17;;;;;;;136.23;29.83;;;;;;;;;;5076238;28;20324;-82
2022/12/24 01:55:44;;;;;;;119.60;30.93;;;;;;;;;;5076471;28;20345;-82
2022/12/24 01:58:10;;;;;;;159.00;33.57;;;;;;;;;;5076190;28;20279;-82
2022/12/24 02:00:37;;;;;;;82.03;28.30;;;;;;;;;;5076102;28;20762;-82
2022/12/24 02:03:03;;;;;;;71.13;25.90;;;;;;;;;;5076175;28;20318;-82
2022/12/24 02:05:31;;;;;;;122.70;30.77;;;;;;;;;;5076046;28;20627;-82
2022/12/24 02:07:59;;;;;;;60.60;25.03;;;;;;;;;;5058399;28;20377;-82
2022/12/24 02:10:25;;;;;;;71.83;26.67;;;;;;;;;;5058299;28;20366;-82
2022/12/24 02:12:51;;;;;;;94.00;29.77;;;;;;;;;;5076476;28;20275;-83
2022/12/24 02:15:18;;;;;;;64.53;26.20;;;;;;;;;;5025297;28;20287;-82
2022/12/24 02:17:50;;;;;;;71.23;28.70;;;;;;;;;;5075891;28;20782;-82
2022/12/24 02:20:25;;;;;;;59.47;25.60;;;;;;;;;;5075809;28;20282;-82
2022/12/24 02:23:07;;;;;;;52.30;23.40;;;;;;;;;;5076078;28;20659;-83
2022/12/24 02:25:52;;;;;;;66.50;25.07;;;;;;;;;;5075688;28;20472;-83
2022/12/24 02:28:21;;;;;;;74.78;26.55;;;;;;;;;;5040921;28;20370;-83
2022/12/24 02:31:08;;;;;;;59.90;24.90;;;;;;;;;;5058340;28;20052;-83
2022/12/24 02:33:41;;;;;;;52.90;23.83;;;;;;;;;;5075530;28;20471;-84
2022/12/24 02:36:07;;;;;;;43.70;22.00;;;;;;;;;;5075582;28;20279;-84
2022/12/24 02:38:46;;;;;;;51.10;23.90;;;;;;;;;;5075613;28;20366;-84
2022/12/24 02:41:24;;;;;;;55.83;22.50;;;;;;;;;;5076089;28;20306;-83
2022/12/24 02:43:51;;;;;;;51.03;21.80;;;;;;;;;;5058714;28;20291;-84
2022/12/24 02:46:20;;;;;;;48.17;21.00;;;;;;;;;;5075269;28;20366;-82
2022/12/24 02:48:47;;;;;;;47.50;21.80;;;;;;;;;;5075831;28;20287;-83
2022/12/24 02:51:13;;;;;;;55.53;23.33;;;;;;;;;;5075366;28;20279;-84
2022/12/24 02:53:40;;;;;;;51.93;21.53;;;;;;;;;;5075756;28;20344;-83
2022/12/24 02:56:12;;;;;;;59.57;23.27;;;;;;;;;;5041124;28;20330;-83
2022/12/24 02:59:01;;;;;;;55.63;21.27;;;;;;;;;;5058080;28;20291;-83
2022/12/24 03:01:33;;;;;;;45.30;20.63;;;;;;;;;;5061996;28;20752;-83
2022/12/24 03:03:59;;;;;;;44.63;19.97;;;;;;;;;;5075069;28;20275;-83
2022/12/24 03:06:35;;;;;;;57.10;21.40;;;;;;;;;;5074914;28;20279;-82
2022/12/24 03:09:06;;;;;;;54.63;19.97;;;;;;;;;;5075200;28;20290;-83
2022/12/24 03:11:33;;;;;;;47.97;18.23;;;;;;;;;;5075429;28;20313;-82
2022/12/24 03:14:00;;;;;;;48.77;16.43;;;;;;;;;;5056961;28;20481;-83
2022/12/24 03:16:27;;;;;;;51.10;15.30;;;;;;;;;;5074748;28;20282;-83
2022/12/24 03:18:54;;;;;;;46.23;13.83;;;;;;;;;;5074750;28;20286;-84
2022/12/24 03:21:20;;;;;;;54.87;13.67;;;;;;;;;;5056804;28;20325;-83
2022/12/24 03:23:47;;;;;;;45.17;10.00;;;;;;;;;;5074683;28;20314;-83
2022/12/24 03:26:14;;;;;;;54.63;9.83;;;;;;;;;;5057711;28;20297;-83
2022/12/24 03:28:40;;;;;;;44.83;8.17;;;;;;;;;;5074510;28;20286;-83
2022/12/24 03:31:07;;;;;;;43.80;7.17;;;;;;;;;;5074528;28;20279;-83
2022/12/24 03:33:33;;;;;;;67.03;8.03;;;;;;;;;;5057403;28;20302;-83
2022/12/24 03:36:00;;;;;;;53.80;8.90;;;;;;;;;;5056736;28;20291;-83
2022/12/24 03:38:26;;;;;;;45.80;7.90;;;;;;;;;;5039685;28;20698;-84
2022/12/24 03:40:52;;;;;;;59.30;8.10;;;;;;;;;;5075016;28;20274;-83
2022/12/24 03:43:18;;;;;;;56.07;7.97;;;;;;;;;;5074253;28;20314;-83
2022/12/24 03:45:44;;;;;;;51.40;8.73;;;;;;;;;;5039641;28;20329;-83
2022/12/24 03:48:10;;;;;;;56.93;7.27;;;;;;;;;;5074695;28;20279;-83
2022/12/24 03:50:36;;;;;;;62.97;9.43;;;;;;;;;;5073993;28;20325;-83
2022/12/24 03:53:03;;;;;;;53.87;7.70;;;;;;;;;;5073931;28;20758;-83
2022/12/24 03:55:29;;;;;;;41.33;6.20;;;;;;;;;;5057102;28;20293;-83
2022/12/24 03:57:55;;;;;;;53.33;8.97;;;;;;;;;;5056781;28;20300;-83
2022/12/24 04:00:21;;;;;;;55.50;7.43;;;;;;;;;;5073895;28;20318;-83
2022/12/24 04:02:47;;;;;;;52.40;6.67;;;;;;;;;;5056357;28;20329;-83
2022/12/24 04:05:14;;;;;;;46.30;6.40;;;;;;;;;;5074002;28;20313;-83
2022/12/24 04:07:41;;;;;;;56.07;7.03;;;;;;;;;;5074002;28;20279;-83
2022/12/24 04:10:07;;;;;;;62.13;8.73;;;;;;;;;;5056850;28;20287;-83
2022/12/24 04:12:33;;;;;;;54.90;7.00;;;;;;;;;;5055881;28;20317;-83
2022/12/24 04:15:00;;;;;;;44.97;6.40;;;;;;;;;;5074139;28;20381;-83
2022/12/24 04:17:26;;;;;;;52.67;7.30;;;;;;;;;;5055987;28;20301;-82
2022/12/24 04:19:52;;;;;;;55.93;7.33;;;;;;;;;;5073856;28;20369;-83
2022/12/24 04:22:18;;;;;;;52.20;6.33;;;;;;;;;;5074144;28;20278;-83
2022/12/24 04:24:44;;;;;;;52.63;6.60;;;;;;;;;;5040062;28;20295;-82
2022/12/24 04:27:10;;;;;;;63.00;8.20;;;;;;;;;;5073539;28;20283;-83
2022/12/24 04:29:36;;;;;;;51.13;7.47;;;;;;;;;;5073356;28;20314;-83
2022/12/24 04:32:03;;;;;;;62.10;7.03;;;;;;;;;;5073442;28;20278;-82
2022/12/24 04:34:29;;;;;;;60.77;7.10;;;;;;;;;;5073371;28;20295;-82
2022/12/24 04:36:55;;;;;;;63.40;8.33;;;;;;;;;;5074269;28;20275;-82
2022/12/24 04:39:21;;;;;;;57.13;7.30;;;;;;;;;;5055668;28;20354;-82
2022/12/24 04:41:47;;;;;;;53.67;7.77;;;;;;;;;;5056223;28;20324;-83
2022/12/24 04:44:13;;;;;;;53.23;7.50;;;;;;;;;;5055686;28;20287;-84
2022/12/24 04:46:41;;;;;;;53.20;6.47;;;;;;;;;;5072933;28;20374;-82
2022/12/24 04:49:07;;;;;;;58.53;6.83;;;;;;;;;;5055538;28;20295;-83
2022/12/24 04:51:33;;;;;;;67.87;7.93;;;;;;;;;;5054515;28;20275;-82
2022/12/24 04:54:00;;;;;;;64.23;8.17;;;;;;;;;;5073218;28;20348;-83
2022/12/24 04:56:27;;;;;;;62.97;8.20;;;;;;;;;;5073222;28;20622;-83
2022/12/24 04:58:54;;;;;;;75.33;7.37;;;;;;;;;;5073661;28;20278;-83
2022/12/24 05:01:21;;;;;;;55.77;7.43;;;;;;;;;;5055326;28;20440;-83
2022/12/24 05:03:48;;;;;;;73.10;8.50;;;;;;;;;;5073108;28;20357;-83
2022/12/24 05:06:15;;;;;;;66.03;8.30;;;;;;;;;;5055334;28;20790;-83
2022/12/24 05:08:42;;;;;;;55.80;8.57;;;;;;;;;;5055392;28;20370;-85
2022/12/24 05:11:08;;;;;;;67.80;8.63;;;;;;;;;;5073064;28;20275;-85
2022/12/24 05:13:35;;;;;;;59.43;7.33;;;;;;;;;;5072891;28;20356;-83
2022/12/24 05:16:01;;;;;;;61.07;7.60;;;;;;;;;;5073774;28;20377;-83
2022/12/24 05:18:27;;;;;;;62.67;8.50;;;;;;;;;;5073253;28;20643;-83
2022/12/24 05:20:53;;;;;;;55.73;7.00;;;;;;;;;;5055534;28;20677;-83
2022/12/24 05:26:21;;;;;;;66.17;7.73;;;;;;;;;;5073443;28;20275;-83
2022/12/24 05:28:49;;;;;;;67.20;9.40;;;;;;;;;;5073413;28;20286;-83
2022/12/24 05:31:16;;;;;;;68.73;7.73;;;;;;;;;;5055227;28;20682;-83
2022/12/24 05:33:42;;;;;;;68.00;7.20;;;;;;;;;;5055311;28;20313;-82
2022/12/24 05:36:08;;;;;;;67.70;7.67;;;;;;;;;;5072858;28;20650;-82
2022/12/24 05:38:34;;;;;;;68.40;6.93;;;;;;;;;;5055938;28;20433;-82
2022/12/24 05:41:00;;;;;;;61.93;7.53;;;;;;;;;;5039411;28;20370;-82
2022/12/24 05:43:26;;;;;;;73.00;9.53;;;;;;;;;;5072691;28;20616;-82
2022/12/24 05:45:57;;;;;;;64.80;8.60;;;;;;;;;;5072856;28;20639;-81
2022/12/24 05:48:23;;;;;;;60.00;6.83;;;;;;;;;;5072046;28;20275;-82
2022/12/24 05:50:49;;;;;;;78.93;8.10;;;;;;;;;;5054657;28;20353;-82
2022/12/24 05:53:15;;;;;;;71.93;8.13;;;;;;;;;;5053959;28;20707;-82
2022/12/24 05:55:41;;;;;;;55.60;6.87;;;;;;;;;;5071221;28;20658;-81
2022/12/24 05:58:08;;;;;;;56.50;6.43;;;;;;;;;;5071121;28;20673;-82
2022/12/24 06:00:34;;;;;;;76.50;7.73;;;;;;;;;;5053938;28;20391;-82
2022/12/24 06:03:00;;;;;;;61.70;7.07;;;;;;;;;;5074632;28;20279;-82
2022/12/24 06:05:26;;;;;;;57.00;7.60;;;;;;;;;;5074911;28;20290;-82
2022/12/24 06:07:52;;;;;;;56.93;7.37;;;;;;;;;;5057874;28;20289;-82
2022/12/24 06:10:18;;;;;;;61.97;8.60;;;;;;;;;;5074884;28;20279;-82
2022/12/24 06:12:45;;;;;;;73.80;8.00;;;;;;;;;;5074709;28;20773;-82
2022/12/24 06:15:11;;;;;;;61.87;7.37;;;;;;;;;;5074576;28;20298;-82
2022/12/24 06:17:37;;;;;;;65.57;8.37;;;;;;;;;;5075270;28;20291;-83
2022/12/24 06:20:03;;;;;;;67.93;7.63;;;;;;;;;;5074656;28;20360;-82
2022/12/24 06:22:30;;;;;;;51.67;6.90;;;;;;;;;;5074617;28;20362;-82
2022/12/24 06:24:56;;;;;;;51.73;7.97;;;;;;;;;;5074662;28;20285;-83
2022/12/24 06:27:22;;;;;;;56.07;6.53;;;;;;;;;;5074661;28;20297;-84
2022/12/24 06:29:48;;;;;;;69.20;8.63;;;;;;;;;;5056630;28;20285;-83
2022/12/24 06:32:14;;;;;;;64.30;8.13;;;;;;;;;;5074545;28;20314;-83
2022/12/24 06:34:40;;;;;;;58.57;7.03;;;;;;;;;;5074981;28;20302;-84
2022/12/24 06:37:06;;;;;;;63.83;7.70;;;;;;;;;;5074946;28;20283;-84
2022/12/24 06:39:32;;;;;;;62.83;7.27;;;;;;;;;;5074365;28;20311;-83
2022/12/24 06:41:59;;;;;;;67.67;7.80;;;;;;;;;;5074228;28;20356;-82
2022/12/24 06:44:25;;;;;;;54.83;7.27;;;;;;;;;;5057144;28;20642;-82
2022/12/24 06:46:51;;;;;;;52.10;7.00;;;;;;;;;;5035196;28;1119223;-82
2022/12/24 06:49:17;;;;;;;49.30;7.83;;;;;;;;;;5075877;28;20056;-82
2022/12/24 06:51:43;;;;;;;48.43;6.30;;;;;;;;;;5075327;28;20369;-81
2022/12/24 06:54:09;;;;;;;57.63;7.10;;;;;;;;;;5057521;28;20348;-82
2022/12/24 06:56:36;;;;;;;61.00;8.83;;;;;;;;;;5075266;28;20678;-82
2022/12/24 06:59:02;;;;;;;57.67;7.80;;;;;;;;;;5075086;28;20287;-82
2022/12/24 07:01:28;;;;;;;64.00;8.70;;;;;;;;;;5057768;28;20373;-82
2022/12/24 07:03:54;;;;;;;52.80;6.63;;;;;;;;;;5075277;28;20317;-82
2022/12/24 07:06:25;;;;;;;56.17;7.10;;;;;;;;;;5075241;28;20306;-82
2022/12/24 07:08:51;;;;;;;52.03;7.93;;;;;;;;;;5075186;28;20784;-82
2022/12/24 07:11:17;;;;;;;58.90;7.47;;;;;;;;;;5074883;28;20843;-82
2022/12/24 07:13:43;;;;;;;52.83;6.40;;;;;;;;;;5073821;28;20837;-82
2022/12/24 07:16:09;;;;;;;47.67;7.27;;;;;;;;;;5057086;28;20330;-82
2022/12/24 07:18:35;;;;;;;64.03;8.17;;;;;;;;;;5057416;28;20361;-82
2022/12/24 07:21:03;;;;;;;67.67;8.00;;;;;;;;;;5074629;28;20291;-82
2022/12/24 07:23:30;;;;;;;51.67;7.00;;;;;;;;;;5074542;28;20283;-82
2022/12/24 07:25:59;;;;;;;59.77;7.53;;;;;;;;;;5056958;28;20297;-82
2022/12/24 07:28:25;;;;;;;55.30;7.80;;;;;;;;;;5075138;28;20312;-82
2022/12/24 07:30:51;;;;;;;48.33;7.57;;;;;;;;;;5074409;28;20386;-82
2022/12/24 07:33:18;;;;;;;61.37;8.00;;;;;;;;;;5057519;28;20283;-82
2022/12/24 07:35:44;;;;;;;58.43;7.57;;;;;;;;;;5056606;28;20271;-82
2022/12/24 07:38:10;;;;;;;71.47;8.07;;;;;;;;;;5056654;28;20318;-82
2022/12/24 07:40:36;;;;;;;63.17;8.87;;;;;;;;;;5074301;28;20278;-82
2022/12/24 07:43:02;;;;;;;53.90;7.30;;;;;;;;;;5074182;28;20362;-82
2022/12/24 07:45:28;;;;;;;57.47;7.67;;;;;;;;;;5074216;28;20463;-84
2022/12/24 07:47:54;;;;;;;76.27;8.30;;;;;;;;;;5074677;28;20286;-83
2022/12/24 07:50:21;;;;;;;70.57;7.53;;;;;;;;;;5056215;28;20363;-84
2022/12/24 07:52:47;;;;;;;58.70;7.37;;;;;;;;;;5074085;28;20279;-83
2022/12/24 07:55:13;;;;;;;58.67;9.13;;;;;;;;;;5073978;28;20299;-83
2022/12/24 07:57:39;;;;;;;67.30;8.20;;;;;;;;;;5074509;28;20301;-82
2022/12/24 08:00:06;;;;;;;63.60;8.60;;;;;;;;;;5073913;28;20285;-84
2022/12/24 08:02:32;;;;;;;70.70;8.47;;;;;;;;;;5073944;28;20718;-82
2022/12/24 08:04:58;;;;;;;72.40;8.00;;;;;;;;;;5056126;28;20321;-81
2022/12/24 08:07:24;;;;;;;56.20;8.50;;;;;;;;;;5073918;28;20279;-82
2022/12/24 08:09:50;;;;;;;68.90;8.77;;;;;;;;;;5074335;28;20730;-81
2022/12/24 08:12:16;;;;;;;68.83;8.80;;;;;;;;;;5073744;28;20762;-82
2022/12/24 08:14:42;;;;;;;76.60;9.43;;;;;;;;;;5073663;28;20306;-81
2022/12/24 08:17:08;;;;;;;68.10;8.47;;;;;;;;;;5056014;28;20318;-81
2022/12/24 08:19:35;;;;;;;76.40;9.67;;;;;;;;;;5073682;28;20298;-82
2022/12/24 08:22:01;;;;;;;64.10;8.77;;;;;;;;;;5074154;28;20289;-85
2022/12/24 08:24:27;;;;;;;68.23;8.00;;;;;;;;;;5055991;28;20287;-82
2022/12/24 08:26:53;;;;;;;56.93;9.03;;;;;;;;;;5055360;28;20318;-83
2022/12/24 08:29:19;;;;;;;62.07;8.67;;;;;;;;;;5073572;28;20322;-82
2022/12/24 08:31:45;;;;;;;68.23;8.53;;;;;;;;;;5055796;28;20291;-83
2022/12/24 08:34:11;;;;;;;72.27;9.20;;;;;;;;;;5056372;28;20715;-83
2022/12/24 08:36:38;;;;;;;70.97;9.03;;;;;;;;;;5073429;28;20377;-83
2022/12/24 08:39:04;;;;;;;63.00;7.87;;;;;;;;;;5073408;28;20287;-82
2022/12/24 08:41:31;;;;;;;68.57;9.13;;;;;;;;;;5073907;28;20596;-82
2022/12/24 08:43:57;;;;;;;67.07;8.57;;;;;;;;;;5055889;28;20373;-83
2022/12/24 08:46:23;;;;;;;59.73;7.23;;;;;;;;;;5073114;28;20318;-86
2022/12/24 08:48:49;;;;;;;61.37;8.77;;;;;;;;;;5073593;28;20302;-86
2022/12/24 08:51:17;;;;;;;62.87;7.27;;;;;;;;;;5038554;28;20298;-86
2022/12/24 08:53:44;;;;;;;55.97;7.10;;;;;;;;;;5073198;28;20440;-83
2022/12/24 08:56:11;;;;;;;51.73;7.27;;;;;;;;;;5073273;28;20319;-83
2022/12/24 08:58:37;;;;;;;69.67;7.00;;;;;;;;;;5073306;28;20788;-81
2022/12/24 09:01:09;;;;;;;60.03;7.93;;;;;;;;;;5056204;28;20373;-82
2022/12/24 09:03:36;;;;;;;59.23;7.97;;;;;;;;;;5073308;28;20485;-82
2022/12/24 09:06:05;;;;;;;63.90;8.33;;;;;;;;;;5055440;28;20326;-82
2022/12/24 09:08:32;;;;;;;56.50;8.97;;;;;;;;;;5072909;28;20830;-82
2022/12/24 09:11:08;;;;;;;47.83;7.27;;;;;;;;;;5073630;28;20375;-84
2022/12/24 09:13:34;;;;;;;54.10;8.37;;;;;;;;;;5072788;28;20306;-83
2022/12/24 09:16:00;;;;;;;53.03;7.40;;;;;;;;;;5073000;28;20759;-81
2022/12/24 09:18:26;;;;;;;53.07;8.80;;;;;;;;;;5073040;28;20282;-82
2022/12/24 09:20:58;;;;;;;51.77;7.83;;;;;;;;;;5039581;28;20298;-82
2022/12/24 09:23:24;;;;;;;50.83;7.20;;;;;;;;;;5073008;28;20778;-81
2022/12/24 09:25:50;;;;;;;52.13;8.40;;;;;;;;;;5073003;28;20286;-83
2022/12/24 09:28:16;;;;;;;61.93;8.57;;;;;;;;;;5072888;28;20328;-84
2022/12/24 09:30:42;;;;;;;65.53;7.93;;;;;;;;;;5055828;28;20624;-82
2022/12/24 09:33:08;;;;;;;57.07;8.67;;;;;;;;;;5073337;28;20368;-82
2022/12/24 09:35:37;;;;;;;55.53;7.90;;;;;;;;;;5072667;28;20306;-82
2022/12/24 09:38:03;;;;;;;58.33;8.57;;;;;;;;;;5076066;28;20375;-84
2022/12/24 09:40:35;;;;;;;58.07;7.47;;;;;;;;;;5058870;28;20377;-82
2022/12/24 09:43:02;;;;;;;58.37;8.03;;;;;;;;;;5058906;28;20314;-85
2022/12/24 09:45:30;;;;;;;67.17;9.13;;;;;;;;;;5025935;28;20331;-84
2022/12/24 09:48:16;;;;;;;59.70;8.37;;;;;;;;;;5059231;28;20348;-83
2022/12/24 09:50:50;;;;;;;63.63;9.00;;;;;;;;;;5076787;28;20318;-80
2022/12/24 09:53:23;;;;;;;67.63;8.63;;;;;;;;;;5076445;28;20287;-82
2022/12/24 09:55:51;;;;;;;51.83;7.33;;;;;;;;;;5059503;28;20283;-81
2022/12/24 09:58:26;;;;;;;57.97;7.90;;;;;;;;;;5058652;28;20290;-80
2022/12/24 10:00:53;;;;;;;54.37;7.43;;;;;;;;;;5076790;28;20320;-81
2022/12/24 10:03:19;;;;;;;50.47;6.87;;;;;;;;;;5076158;28;20275;-81
2022/12/24 10:05:51;;;;;;;57.07;7.70;;;;;;;;;;5076955;28;20436;-82
2022/12/24 10:08:17;;;;;;;50.80;8.00;;;;;;;;;;5076225;28;20283;-81
2022/12/24 10:10:54;;;;;;;57.40;8.87;;;;;;;;;;5076063;28;20830;-81
2022/12/24 10:13:34;;;;;;;53.23;8.50;;;;;;;;;;5058614;28;20600;-81
2022/12/24 10:16:06;;;;;;;61.77;7.90;;;;;;;;;;5076645;28;20332;-81
2022/12/24 10:18:51;;;;;;;50.10;7.50;;;;;;;;;;5076038;28;20380;-81
2022/12/24 10:21:36;;;;;;;46.92;6.70;;;;;;;;;;5075976;28;20283;-81
2022/12/24 10:24:15;;;;;;;40.57;6.83;;;;;;;;;;5076174;28;20059;-79
2022/12/24 10:26:44;;;;;;;58.10;8.23;;;;;;;;;;5076416;28;20362;-80
2022/12/24 10:29:10;;;;;;;41.43;7.17;;;;;;;;;;5076299;28;20293;-81
2022/12/24 10:31:53;;;;;;;41.90;6.00;;;;;;;;;;5058371;28;20904;-80
2022/12/24 10:34:22;;;;;;;51.63;8.03;;;;;;;;;;5075678;28;20295;-84
2022/12/24 10:36:48;;;;;;;46.10;6.23;;;;;;;;;;5075589;28;20287;-81
2022/12/24 10:39:19;;;;;;;44.83;7.47;;;;;;;;;;5075540;28;20670;-80
2022/12/24 10:41:47;;;;;;;45.80;7.57;;;;;;;;;;5075570;28;20366;-79
2022/12/24 10:44:16;;;;;;;47.27;6.73;;;;;;;;;;5076206;28;20350;-81
2022/12/24 10:46:43;;;;;;;39.07;6.03;;;;;;;;;;5057567;28;20353;-79
2022/12/24 10:49:17;;;;;;;42.67;6.93;;;;;;;;;;5075652;28;20322;-79
2022/12/24 10:51:46;;;;;;;46.70;6.77;;;;;;;;;;5040656;28;20334;-79
2022/12/24 10:54:15;;;;;;;45.43;6.80;;;;;;;;;;5057435;28;20295;-79
2022/12/24 10:56:42;;;;;;;47.83;6.37;;;;;;;;;;5058166;28;20341;-81
2022/12/24 10:59:23;;;;;;;44.37;6.60;;;;;;;;;;5075178;28;20283;-80
2022/12/24 11:01:50;;;;;;;49.00;6.77;;;;;;;;;;5075205;28;20267;-81
2022/12/24 11:04:17;;;;;;;45.87;7.47;;;;;;;;;;5057156;28;20326;-80
2022/12/24 11:06:52;;;;;;;43.57;7.63;;;;;;;;;;5075118;28;20318;-84
2022/12/24 11:09:23;;;;;;;40.53;6.33;;;;;;;;;;5074910;28;20302;-80
2022/12/24 11:11:50;;;;;;;37.53;6.13;;;;;;;;;;5074870;28;20294;-85
2022/12/24 11:14:17;;;;;;;44.50;6.37;;;;;;;;;;5057555;28;20318;-85
2022/12/24 11:16:49;;;;;;;44.73;6.30;;;;;;;;;;5075434;28;20321;-85
2022/12/24 11:19:34;;;;;;;57.17;6.70;;;;;;;;;;5075601;28;20638;-85
2022/12/24 11:22:02;;;;;;;52.20;7.03;;;;;;;;;;5074785;28;20275;-84
2022/12/24 11:24:30;;;;;;;31.70;6.10;;;;;;;;;;5074613;28;20439;-83
2022/12/24 11:27:17;;;;;;;41.17;6.60;;;;;;;;;;5074850;28;20624;-83
2022/12/24 11:29:43;;;;;;;35.83;5.97;;;;;;;;;;5074837;28;20817;-84
2022/12/24 11:32:20;;;;;;;48.17;6.63;;;;;;;;;;5057686;28;20293;-85
2022/12/24 11:34:46;;;;;;;47.13;7.90;;;;;;;;;;5074973;28;20295;-84
2022/12/24 11:37:12;;;;;;;46.03;7.10;;;;;;;;;;5074475;28;20362;-83
2022/12/24 11:39:40;;;;;;;38.70;5.77;;;;;;;;;;5057578;28;20287;-85
2022/12/24 11:42:06;;;;;;;39.67;5.93;;;;;;;;;;5074879;28;20289;-83
2022/12/24 11:44:33;;;;;;;39.50;6.30;;;;;;;;;;5074332;28;20286;-84
2022/12/24 11:46:59;;;;;;;46.43;6.93;;;;;;;;;;5056178;28;20370;-83
2022/12/24 11:49:29;;;;;;;31.53;4.83;;;;;;;;;;5074749;28;20287;-83
2022/12/24 11:51:58;;;;;;;41.17;5.73;;;;;;;;;;5074160;28;20314;-83
2022/12/24 11:54:29;;;;;;;35.73;7.00;;;;;;;;;;5074618;28;20307;-82
2022/12/24 11:56:57;;;;;;;34.73;6.43;;;;;;;;;;5057605;28;20354;-86
2022/12/24 11:59:34;;;;;;;41.73;5.80;;;;;;;;;;5073551;28;20373;-87
2022/12/24 12:02:15;;;;;;;45.20;5.73;;;;;;;;;;5074024;28;20681;-84
2022/12/24 12:04:43;;;;;;;39.60;6.37;;;;;;;;;;5073986;28;20283;-82
2022/12/24 12:07:09;;;;;;;40.00;6.20;;;;;;;;;;5056797;28;20287;-86
2022/12/24 12:09:41;;;;;;;30.87;5.40;;;;;;;;;;5073896;28;20283;-84
2022/12/24 12:12:12;;;;;;;39.63;6.57;;;;;;;;;;5073700;28;20778;-88
2022/12/24 12:14:58;;;;;;;37.00;7.43;;;;;;;;;;5074344;28;20294;-84
2022/12/24 12:17:43;;;;;;;51.43;6.60;;;;;;;;;;5073936;28;20370;-80
2022/12/24 12:20:12;;;;;;;41.85;5.55;;;;;;;;;;5056926;28;20326;-82
2022/12/24 12:22:44;;;;;;;42.00;6.13;;;;;;;;;;5073615;28;20051;-81
2022/12/24 12:25:17;;;;;;;38.73;4.67;;;;;;;;;;5073650;28;20322;-86
2022/12/24 12:27:44;;;;;;;34.50;5.83;;;;;;;;;;5056532;28;20302;-83
2022/12/24 12:30:14;;;;;;;35.87;6.17;;;;;;;;;;5055877;28;20283;-82
2022/12/24 12:32:59;;;;;;;42.03;6.63;;;;;;;;;;5055794;28;20643;-83
2022/12/24 12:35:28;;;;;;;36.70;5.72;;;;;;;;;;5056228;28;20307;-82
2022/12/24 12:38:03;;;;;;;35.93;5.10;;;;;;;;;;5039085;28;20500;-82
2022/12/24 12:40:36;;;;;;;36.60;6.10;;;;;;;;;;5039185;28;20289;-82
2022/12/24 12:43:08;;;;;;;39.83;5.83;;;;;;;;;;5073563;28;20083;-81
2022/12/24 12:45:38;;;;;;;37.23;6.13;;;;;;;;;;5056146;28;20361;-82
2022/12/24 12:48:07;;;;;;;34.73;4.97;;;;;;;;;;5073059;28;20299;-82
2022/12/24 12:50:40;;;;;;;38.53;5.47;;;;;;;;;;5072989;28;20404;-81
2022/12/24 12:53:26;;;;;;;28.13;4.53;;;;;;;;;;5073055;28;20278;-82
2022/12/24 12:55:55;;;;;;;32.13;5.57;;;;;;;;;;5073432;28;20328;-83
2022/12/24 12:58:32;;;;;;;33.50;4.87;;;;;;;;;;5073164;28;20326;-82
2022/12/24 13:01:02;;;;;;;49.10;6.07;;;;;;;;;;5055330;28;20322;-85
2022/12/24 13:03:37;;;;;;;32.97;5.03;;;;;;;;;;5038752;28;20851;-85
2022/12/24 13:06:22;;;;;;;30.23;5.30;;;;;;;;;;5073184;28;20376;-87
2022/12/24 13:09:04;;;;;;;36.13;5.45;;;;;;;;;;5055481;28;20055;-81
2022/12/24 13:11:36;;;;;;;36.67;5.40;;;;;;;;;;5056442;28;20098;-84
2022/12/24 13:14:37;;;;;;;38.10;5.13;;;;;;;;;;5077071;28;20337;-84
2022/12/24 13:17:30;;;;;;;42.47;6.00;;;;;;;;;;4976067;28;20286;-82
2022/12/24 13:20:11;;;;;;;34.63;5.30;;;;;;;;;;5037741;28;20290;-81
2022/12/24 13:22:37;;;;;;;34.30;6.13;;;;;;;;;;5076900;28;20303;-81
2022/12/24 13:25:03;;;;;;;37.30;6.30;;;;;;;;;;5076935;28;20279;-80
2022/12/24 13:27:30;;;;;;;31.83;5.20;;;;;;;;;;5059272;28;20370;-80
2022/12/24 13:29:58;;;;;;;39.00;5.03;;;;;;;;;;5076852;28;20762;-81
2022/12/24 13:32:26;;;;;;;32.93;5.90;;;;;;;;;;5059085;28;20295;-81
2022/12/24 13:34:52;;;;;;;33.53;5.17;;;;;;;;;;5077186;28;20345;-83
2022/12/24 13:37:36;;;;;;;29.00;4.63;;;;;;;;;;5058764;28;20320;-82
2022/12/24 13:40:03;;;;;;;32.63;5.57;;;;;;;;;;5058934;28;20286;-83
2022/12/24 13:42:47;;;;;;;39.13;5.03;;;;;;;;;;5059110;28;20060;-82
2022/12/24 13:45:32;;;;;;;35.58;5.65;;;;;;;;;;5058956;28;20287;-83
2022/12/24 13:47:58;;;;;;;31.60;5.10;;;;;;;;;;5077085;28;20127;-83
2022/12/24 13:50:42;;;;;;;35.27;5.47;;;;;;;;;;5076442;28;20279;-82
2022/12/24 13:53:28;;;;;;;31.53;5.43;;;;;;;;;;5058778;28;20287;-81
2022/12/24 13:55:54;;;;;;;23.23;3.85;;;;;;;;;;5076845;28;20279;-80
2022/12/24 13:58:20;;;;;;;24.27;4.60;;;;;;;;;;5058707;28;20135;-83
2022/12/24 14:01:07;;;;;;;30.23;4.77;;;;;;;;;;5042385;28;20295;-83
2022/12/24 14:03:37;;;;;;;27.63;4.60;;;;;;;;;;5059188;28;20329;-83
2022/12/24 14:06:06;;;;;;;34.50;5.33;;;;;;;;;;5076173;28;20325;-82
2022/12/24 14:08:41;;;;;;;30.57;4.60;;;;;;;;;;5076957;28;20310;-82
2022/12/24 14:11:07;;;;;;;28.70;4.38;;;;;;;;;;5058435;28;20287;-81
2022/12/24 14:13:39;;;;;;;25.83;5.20;;;;;;;;;;5041991;28;20087;-85
2022/12/24 14:16:05;;;;;;;31.47;5.40;;;;;;;;;;5058505;28;20299;-82
2022/12/24 14:18:33;;;;;;;28.10;5.17;;;;;;;;;;5076030;28;20750;-84
2022/12/24 14:21:00;;;;;;;26.27;4.97;;;;;;;;;;5058331;28;20401;-82
2022/12/24 14:23:29;;;;;;;26.03;4.87;;;;;;;;;;5075470;28;20368;-83
2022/12/24 14:25:56;;;;;;;33.53;5.33;;;;;;;;;;5075858;28;20838;-87
2022/12/24 14:28:25;;;;;;;32.83;5.40;;;;;;;;;;5058985;28;20334;-86
2022/12/24 14:31:01;;;;;;;36.07;6.20;;;;;;;;;;5058065;28;20809;-86
2022/12/24 14:33:28;;;;;;;26.00;4.60;;;;;;;;;;5075751;28;20289;-78
2022/12/24 14:35:54;;;;;;;32.13;4.63;;;;;;;;;;5076110;28;20353;-85
2022/12/24 14:38:21;;;;;;;25.10;4.60;;;;;;;;;;5075852;28;20285;-84
2022/12/24 14:40:48;;;;;;;27.27;4.90;;;;;;;;;;5042245;28;20608;-86
2022/12/24 14:43:22;;;;;;;29.87;5.17;;;;;;;;;;5058005;28;20295;-82